Terminal Aerodrome Forecast
Issued by NWS North Platte, NE

Home | Current Version | Previous Version | Text Only | Print | Product List | Glossary On
Versions: 1 2 3 4 5 6 7 8 9 10 11 12 13 14
000
FTUS43 KLBF 031120
TAFLBF
TAF
KLBF 031120Z 0312/0412 13005KT P6SM SCT250
     FM032100 15010KT P6SM SCT150
     FM040000 13008KT P6SM SCT120 BKN150 PROB30 0403/0409 5SM -TSRA
      BKN100CB=

USA.gov is the U.S. government's official web portal to all federal, state and local government web resources and services.